Observation data for Floydada on 12/13/2019      Previous  Date       Current Mesonet Observations  Soil Data  Daily Summary Page  Observations in Plain Language
KFLS 130600Z 32003KT M01/M04 A2997 RMK A01 T10101043  RH  079%=      5-min Rain = 0
KFLS 130605Z 32002KT M01/M04 A2996 RMK A01 T10111044  RH  079%=      5-min Rain = 0
KFLS 130610Z 29003KT M01/M04 A2996 RMK A01 T10081041  RH  079%=      5-min Rain = 0
KFLS 130615Z 29003KT M01/M04 A2996 RMK A01 T10121044  RH  079%=      5-min Rain = 0
KFLS 130620Z 29004KT M02/M05 A2996 RMK A01 T10181050  RH  080%=      5-min Rain = 0
KFLS 130625Z 30004KT M02/M05 A2996 RMK A01 T10211051  RH  081%=      5-min Rain = 0
KFLS 130630Z 30003KT M02/M05 A2996 RMK A01 T10181048  RH  081%=      5-min Rain = 0
KFLS 130635Z 30004KT M02/M05 A2996 RMK A01 T10191048  RH  081%=      5-min Rain = 0
KFLS 130640Z 30003KT M02/M05 A2995 RMK A01 T10211050  RH  082%=      5-min Rain = 0
KFLS 130645Z 30003KT M02/M05 A2995 RMK A01 T10231051  RH  082%=      5-min Rain = 0
KFLS 130650Z 30003KT M02/M05 A2994 RMK A01 T10161045  RH  082%=      5-min Rain = 0
KFLS 130655Z 29004KT M01/M05 A2994 RMK A01 T10141047  RH  080%=      5-min Rain = 0
KFLS 130700Z 29004KT M02/M05 A2994 RMK A01 T10221052  RH  081%=      5-min Rain = 0
KFLS 130705Z 29003KT M03/M05 A2994 RMK A01 T10271054  RH  082%=      5-min Rain = 0
KFLS 130710Z 29004KT M02/M05 A2994 RMK A01 T10241050  RH  083%=      5-min Rain = 0
KFLS 130715Z 29006KT M03/M05 A2994 RMK A01 T10261053  RH  083%=      5-min Rain = 0
KFLS 130720Z 29007KT M03/M05 A2994 RMK A01 T10271051  RH  084%=      5-min Rain = 0
KFLS 130725Z 29008KT M03/M05 A2994 RMK A01 T10251049  RH  085%=      5-min Rain = 0
KFLS 130730Z 29008KT M02/M05 A2994 RMK A01 T10231047  RH  085%=      5-min Rain = 0
KFLS 130735Z 29007KT M02/M05 A2994 RMK A01 T10221047  RH  084%=      5-min Rain = 0
KFLS 130740Z 29007KT M02/M05 A2994 RMK A01 T10221046  RH  084%=      5-min Rain = 0
KFLS 130745Z 29007KT M02/M05 A2994 RMK A01 T10211046  RH  084%=      5-min Rain = 0
KFLS 130750Z 29007KT M02/M05 A2994 RMK A01 T10231047  RH  084%=      5-min Rain = 0
KFLS 130755Z 29007KT M02/M05 A2994 RMK A01 T10241048  RH  085%=      5-min Rain = 0
KFLS 130800Z 29008KT M02/M05 A2994 RMK A01 T10231046  RH  085%=      5-min Rain = 0
KFLS 130805Z 30007KT M02/M04 A2994 RMK A01 T10191044  RH  085%=      5-min Rain = 0
KFLS 130810Z 30007KT M01/M04 A2993 RMK A01 T10121041  RH  082%=      5-min Rain = 0
KFLS 130815Z 30007KT M01/M04 A2993 RMK A01 T10101042  RH  080%=      5-min Rain = 0
KFLS 130820Z 30006KT M01/M04 A2992 RMK A01 T10111044  RH  080%=      5-min Rain = 0
KFLS 130825Z 29005KT M01/M04 A2992 RMK A01 T10131044  RH  080%=      5-min Rain = 0
KFLS 130830Z 28006KT M02/M05 A2992 RMK A01 T10191049  RH  081%=      5-min Rain = 0
KFLS 130835Z 29006KT M02/M05 A2992 RMK A01 T10241050  RH  083%=      5-min Rain = 0
KFLS 130840Z 29007KT M02/M05 A2992 RMK A01 T10221049  RH  083%=      5-min Rain = 0
KFLS 130845Z 29007KT M02/M05 A2992 RMK A01 T10221049  RH  083%=      5-min Rain = 0
KFLS 130850Z 29007KT M02/M05 A2993 RMK A01 T10231049  RH  083%=      5-min Rain = 0
KFLS 130855Z 29007KT M03/M05 A2993 RMK A01 T10251049  RH  084%=      5-min Rain = 0
KFLS 130900Z 29006KT M03/M05 A2993 RMK A01 T10251049  RH  085%=      5-min Rain = 0
KFLS 130905Z 29006KT M02/M05 A2992 RMK A01 T10231047  RH  085%=      5-min Rain = 0
KFLS 130910Z 29006KT M02/M05 A2992 RMK A01 T10211046  RH  084%=      5-min Rain = 0
KFLS 130915Z 29006KT M02/M05 A2992 RMK A01 T10211047  RH  083%=      5-min Rain = 0
KFLS 130920Z 29006KT M02/M05 A2992 RMK A01 T10211046  RH  084%=      5-min Rain = 0
KFLS 130925Z 28007KT M02/M05 A2992 RMK A01 T10221048  RH  083%=      5-min Rain = 0
KFLS 130930Z 28007KT M03/M05 A2992 RMK A01 T10251049  RH  084%=      5-min Rain = 0
KFLS 130935Z 28007KT M02/M05 A2992 RMK A01 T10221046  RH  084%=      5-min Rain = 0
KFLS 130940Z 29007KT M02/M05 A2992 RMK A01 T10211046  RH  084%=      5-min Rain = 0
KFLS 130945Z 30007KT M02/M05 A2992 RMK A01 T10221046  RH  085%=      5-min Rain = 0
KFLS 130950Z 30006KT M02/M05 A2992 RMK A01 T10211047  RH  084%=      5-min Rain = 0
KFLS 130955Z 30006KT M02/M05 A2992 RMK A01 T10201046  RH  084%=      5-min Rain = 0
KFLS 131000Z 29006KT M02/M05 A2992 RMK A01 T10231049  RH  083%=      5-min Rain = 0
KFLS 131005Z 30006KT M03/M05 A2992 RMK A01 T10251050  RH  084%=      5-min Rain = 0
KFLS 131010Z 30006KT M02/M05 A2992 RMK A01 T10221046  RH  084%=      5-min Rain = 0
KFLS 131015Z 30007KT M02/M05 A2992 RMK A01 T10191047  RH  082%=      5-min Rain = 0
KFLS 131020Z 30007KT M02/M05 A2992 RMK A01 T10201047  RH  083%=      5-min Rain = 0
KFLS 131025Z 29006KT M02/M05 A2992 RMK A01 T10201046  RH  083%=      5-min Rain = 0
KFLS 131030Z 30007KT M02/M05 A2992 RMK A01 T10211047  RH  084%=      5-min Rain = 0
KFLS 131035Z 29007KT M02/M05 A2992 RMK A01 T10191045  RH  084%=      5-min Rain = 0
KFLS 131040Z 30007KT M02/M04 A2992 RMK A01 T10171042  RH  084%=      5-min Rain = 0
KFLS 131045Z 30006KT M01/M04 A2992 RMK A01 T10101037  RH  083%=      5-min Rain = 0
KFLS 131050Z 30006KT M01/M04 A2992 RMK A01 T10091038  RH  082%=      5-min Rain = 0
KFLS 131055Z 29007KT M01/M04 A2992 RMK A01 T10121040  RH  082%=      5-min Rain = 0
KFLS 131100Z 28007KT M01/M04 A2992 RMK A01 T10141041  RH  083%=      5-min Rain = 0
KFLS 131105Z 27008KT M02/M04 A2992 RMK A01 T10161041  RH  084%=      5-min Rain = 0
KFLS 131110Z 28007KT M02/M04 A2991 RMK A01 T10161041  RH  084%=      5-min Rain = 0
KFLS 131115Z 28007KT M02/M04 A2991 RMK A01 T10171043  RH  084%=      5-min Rain = 0
KFLS 131120Z 28007KT M02/M04 A2991 RMK A01 T10201044  RH  084%=      5-min Rain = 0
KFLS 131125Z 28008KT M02/M04 A2991 RMK A01 T10201044  RH  085%=      5-min Rain = 0
KFLS 131130Z 28007KT M02/M04 A2991 RMK A01 T10191042  RH  085%=      5-min Rain = 0
KFLS 131135Z 28007KT M02/M04 A2991 RMK A01 T10171040  RH  085%=      5-min Rain = 0
KFLS 131140Z 28007KT M02/M04 A2991 RMK A01 T10151038  RH  085%=      5-min Rain = 0
KFLS 131145Z 28006KT M01/M04 A2991 RMK A01 T10141038  RH  085%=      5-min Rain = 0
KFLS 131150Z 28006KT M01/M04 A2991 RMK A01 T10131037  RH  085%=      5-min Rain = 0
KFLS 131155Z 28007KT M01/M04 A2991 RMK A01 T10131037  RH  085%=      5-min Rain = 0
KFLS 131200Z 28008KT M01/M04 A2992 RMK A01 T10131036  RH  085%=      5-min Rain = 0
KFLS 131205Z 28009KT M01/M04 A2992 RMK A01 T10131036  RH  085%=      5-min Rain = 0
KFLS 131210Z 28008KT M01/M04 A2992 RMK A01 T10111035  RH  085%=      5-min Rain = 0
KFLS 131215Z 28007KT M01/M04 A2992 RMK A01 T10111035  RH  085%=      5-min Rain = 0
KFLS 131220Z 28007KT M01/M04 A2992 RMK A01 T10121035  RH  085%=      5-min Rain = 0
KFLS 131225Z 28006KT M01/M04 A2992 RMK A01 T10131035  RH  086%=      5-min Rain = 0
KFLS 131230Z 29006KT M01/M03 A2992 RMK A01 T10121034  RH  086%=      5-min Rain = 0
KFLS 131235Z 29006KT M01/M03 A2991 RMK A01 T10101032  RH  086%=      5-min Rain = 0
KFLS 131240Z 29006KT M01/M03 A2991 RMK A01 T10091031  RH  086%=      5-min Rain = 0
KFLS 131245Z 28006KT M01/M03 A2991 RMK A01 T10091030  RH  086%=      5-min Rain = 0
KFLS 131250Z 28007KT M01/M03 A2992 RMK A01 T10081030  RH  086%=      5-min Rain = 0
KFLS 131255Z 28009KT M01/M03 A2992 RMK A01 T10061027  RH  087%=      5-min Rain = 0
KFLS 131300Z 28010KT 00/02 A2992 RMK A01 T00-00-24  RH  085%=      5-min Rain = 0
KFLS 131305Z 28008KT 00/M02 A2992 RMK A01 T00021023  RH  084%=      5-min Rain = 0
KFLS 131310Z 29008KT 01/M02 A2992 RMK A01 T00051022  RH  083%=      5-min Rain = 0
KFLS 131315Z 29008KT 01/M02 A2992 RMK A01 T00061023  RH  082%=      5-min Rain = 0
KFLS 131320Z 28009KT 01/M02 A2992 RMK A01 T00051024  RH  082%=      5-min Rain = 0
KFLS 131325Z 28009KT 01/M02 A2992 RMK A01 T00051024  RH  082%=      5-min Rain = 0
KFLS 131330Z 28009KT 01/M02 A2992 RMK A01 T00061024  RH  081%=      5-min Rain = 0
KFLS 131335Z 28009KT 01/M03 A2992 RMK A01 T00071025  RH  080%=      5-min Rain = 0
KFLS 131340Z 28009KT 01/M03 A2992 RMK A01 T00071025  RH  080%=      5-min Rain = 0
KFLS 131345Z 29008KT 01/M03 A2992 RMK A01 T00061025  RH  080%=      5-min Rain = 0
KFLS 131350Z 29007KT 00/M03 A2992 RMK A01 T00041027  RH  081%=      5-min Rain = 0
KFLS 131355Z 29006KT 00/M03 A2992 RMK A01 T00011028  RH  081%=      5-min Rain = 0
KFLS 131400Z 28007KT 00/M03 A2993 RMK A01 T00021028  RH  081%=      5-min Rain = 0
KFLS 131405Z 28007KT 00/M03 A2993 RMK A01 T00011028  RH  082%=      5-min Rain = 0
KFLS 131410Z 29007KT 00/M03 A2993 RMK A01 T00011027  RH  082%=      5-min Rain = 0
KFLS 131415Z 28007KT 01/M03 A2993 RMK A01 T00051026  RH  081%=      5-min Rain = 0
KFLS 131420Z 29007KT 01/M02 A2992 RMK A01 T00091024  RH  080%=      5-min Rain = 0
KFLS 131425Z 29007KT 01/M02 A2993 RMK A01 T00131022  RH  078%=      5-min Rain = 0
KFLS 131430Z 29007KT 02/M02 A2993 RMK A01 T00161020  RH  078%=      5-min Rain = 0
KFLS 131435Z 28008KT 02/M02 A2993 RMK A01 T00201017  RH  077%=      5-min Rain = 0
KFLS 131440Z 28009KT 03/M02 A2993 RMK A01 T00251016  RH  075%=      5-min Rain = 0
KFLS 131445Z 28010KT 03/M01 A2994 RMK A01 T00301014  RH  074%=      5-min Rain = 0
KFLS 131450Z 28010KT 04/M01 A2994 RMK A01 T00361012  RH  072%=      5-min Rain = 0
KFLS 131455Z 28009KT 04/M01 A2994 RMK A01 T00411010  RH  071%=      5-min Rain = 0
KFLS 131500Z 28009KT 04/M01 A2994 RMK A01 T00441009  RH  069%=      5-min Rain = 0
KFLS 131505Z 28010KT 05/M01 A2995 RMK A01 T00471008  RH  068%=      5-min Rain = 0
KFLS 131510Z 28010KT 05/M01 A2994 RMK A01 T00531005  RH  067%=      5-min Rain = 0
KFLS 131515Z 28011KT 06/M01 A2994 RMK A01 T00591005  RH  064%=      5-min Rain = 0
KFLS 131520Z 29012KT 06/M01 A2994 RMK A01 T00641005  RH  062%=      5-min Rain = 0
KFLS 131525Z 29011KT 07/M01 A2994 RMK A01 T00691005  RH  060%=      5-min Rain = 0
KFLS 131530Z 29012KT 07/M01 A2994 RMK A01 T00741005  RH  058%=      5-min Rain = 0
KFLS 131535Z 29011KT 08/M01 A2994 RMK A01 T00781005  RH  056%=      5-min Rain = 0
KFLS 131540Z 29011KT 08/M01 A2994 RMK A01 T00811005  RH  055%=      5-min Rain = 0
KFLS 131545Z 29011KT 08/M01 A2995 RMK A01 T00831006  RH  054%=      5-min Rain = 0
KFLS 131550Z 29011KT 09/M00 A2994 RMK A01 T00891004  RH  053%=      5-min Rain = 0
KFLS 131555Z 29012KT 10/M01 A2994 RMK A01 T00951006  RH  050%=      5-min Rain = 0
KFLS 131600Z 30011G16KT 10/M01 A2994 RMK A01 T01001006  RH  048%=      5-min Rain = 0
KFLS 131605Z 30010KT 11/M01 A2993 RMK A01 T01051005  RH  047%=      5-min Rain = 0
KFLS 131610Z 30010G15KT 11/M01 A2993 RMK A01 T01081005  RH  046%=      5-min Rain = 0
KFLS 131615Z 29011KT 11/M00 A2993 RMK A01 T01131004  RH  045%=      5-min Rain = 0
KFLS 131620Z 29012KT 12/M00 A2993 RMK A01 T01171003  RH  044%=      5-min Rain = 0
KFLS 131625Z 29008KT 12/M00 A2993 RMK A01 T01201002  RH  044%=      5-min Rain = 0
KFLS 131630Z 29010G15KT 13/M00 A2993 RMK A01 T01261001  RH  042%=      5-min Rain = 0
KFLS 131635Z 28013KT 13/M00 A2992 RMK A01 T01301003  RH  040%=      5-min Rain = 0
KFLS 131640Z 28012KT 14/M00 A2992 RMK A01 T01371003  RH  039%=      5-min Rain = 0
KFLS 131645Z 29013KT 14/M01 A2992 RMK A01 T01421005  RH  037%=      5-min Rain = 0
KFLS 131650Z 29014KT 15/M01 A2992 RMK A01 T01461006  RH  036%=      5-min Rain = 0
KFLS 131655Z 29014KT 15/M01 A2992 RMK A01 T01491006  RH  035%=      5-min Rain = 0
KFLS 131700Z 29013G18KT 16/M01 A2992 RMK A01 T01551007  RH  033%=      5-min Rain = 0
KFLS 131705Z 29015G20KT 16/M01 A2992 RMK A01 T01581009  RH  032%=      5-min Rain = 0
KFLS 131710Z 30014G19KT 16/M01 A2992 RMK A01 T01631008  RH  031%=      5-min Rain = 0
KFLS 131715Z 29016G22KT 17/M01 A2992 RMK A01 T01651010  RH  031%=      5-min Rain = 0
KFLS 131720Z 29014G21KT 17/M01 A2992 RMK A01 T01711008  RH  030%=      5-min Rain = 0
KFLS 131725Z 30016G21KT 17/M01 A2991 RMK A01 T01691011  RH  030%=      5-min Rain = 0
KFLS 131730Z 30013G18KT 18/M01 A2991 RMK A01 T01761009  RH  029%=      5-min Rain = 0
KFLS 131735Z 29014G19KT 18/M01 A2991 RMK A01 T01791010  RH  028%=      5-min Rain = 0
KFLS 131740Z 29016G21KT 18/M01 A299 RMK A01 T01791012  RH  028%=      5-min Rain = 0
KFLS 131745Z 29018G23KT 18/M01 A2991 RMK A01 T01831013  RH  027%=      5-min Rain = 0
KFLS 131750Z 29017KT 18/M01 A299 RMK A01 T01831014  RH  027%=      5-min Rain = 0
KFLS 131755Z 30017G23KT 19/M01 A299 RMK A01 T01851014  RH  026%=      5-min Rain = 0
KFLS 131800Z 30018G24KT 19/M02 A299 RMK A01 T01851015  RH  026%=      5-min Rain = 0
KFLS 131805Z 30019G29KT 18/M02 A2989 RMK A01 T01841017  RH  026%=      5-min Rain = 0
KFLS 131810Z 30019G24KT 18/M02 A2989 RMK A01 T01841018  RH  026%=      5-min Rain = 0
KFLS 131815Z 31018G24KT 18/M02 A2989 RMK A01 T01841019  RH  025%=      5-min Rain = 0
KFLS 131820Z 31018G24KT 18/M02 A2989 RMK A01 T01831019  RH  026%=      5-min Rain = 0
KFLS 131825Z 31016G22KT 19/M02 A2989 RMK A01 T01871017  RH  025%=      5-min Rain = 0
KFLS 131830Z 30017G23KT 19/M02 A2988 RMK A01 T01851018  RH  025%=      5-min Rain = 0
KFLS 131835Z 31016G21KT 19/M02 A2988 RMK A01 T01871017  RH  025%=      5-min Rain = 0
KFLS 131840Z 31018G24KT 18/M02 A2988 RMK A01 T01841019  RH  025%=      5-min Rain = 0
KFLS 131845Z 31016G21KT 19/M02 A2988 RMK A01 T01861019  RH  025%=      5-min Rain = 0
KFLS 131850Z 31015G21KT 19/M02 A2987 RMK A01 T01851020  RH  025%=      5-min Rain = 0
KFLS 131855Z 31016G22KT 19/M02 A2987 RMK A01 T01861019  RH  025%=      5-min Rain = 0
KFLS 131900Z 30015G23KT 19/M02 A2987 RMK A01 T01881018  RH  025%=      5-min Rain = 0
KFLS 131905Z 30016G22KT 19/M02 A2987 RMK A01 T01891017  RH  025%=      5-min Rain = 0
KFLS 131910Z 30016G23KT 19/M02 A2987 RMK A01 T01901017  RH  025%=      5-min Rain = 0
KFLS 131915Z 30016G24KT 19/M02 A2987 RMK A01 T01901018  RH  025%=      5-min Rain = 0
KFLS 131920Z 31016G21KT 19/M02 A2987 RMK A01 T01911018  RH  025%=      5-min Rain = 0
KFLS 131925Z 31014G19KT 19/M02 A2986 RMK A01 T01931018  RH  024%=      5-min Rain = 0
KFLS 131930Z 30019G24KT 19/M02 A2987 RMK A01 T01931018  RH  024%=      5-min Rain = 0
KFLS 131935Z 30015G22KT 20/M02 A2987 RMK A01 T01951019  RH  024%=      5-min Rain = 0
KFLS 131940Z 30018G24KT 19/M02 A2987 RMK A01 T01941021  RH  024%=      5-min Rain = 0
KFLS 131945Z 31016G21KT 20/M02 A2987 RMK A01 T01961024  RH  023%=      5-min Rain = 0
KFLS 131950Z 30016G23KT 20/M03 A2986 RMK A01 T01971025  RH  022%=      5-min Rain = 0
KFLS 131955Z 31017G23KT 20/M03 A2986 RMK A01 T01981025  RH  022%=      5-min Rain = 0
KFLS 132000Z 31016G22KT 20/M03 A2986 RMK A01 T02001028  RH  022%=      5-min Rain = 0
KFLS 132005Z 30017G24KT 20/M03 A2986 RMK A01 T01991031  RH  021%=      5-min Rain = 0
KFLS 132010Z 30018G23KT 20/M03 A2985 RMK A01 T01981032  RH  021%=      5-min Rain = 0
KFLS 132015Z 30014G22KT 20/M03 A2984 RMK A01 T01971030  RH  022%=      5-min Rain = 0
KFLS 132020Z 30014G20KT 20/M03 A2984 RMK A01 T01981029  RH  022%=      5-min Rain = 0
KFLS 132025Z 30016G23KT 20/M03 A2984 RMK A01 T01971028  RH  022%=      5-min Rain = 0
KFLS 132030Z 31018G23KT 20/M03 A2984 RMK A01 T01961031  RH  022%=      5-min Rain = 0
KFLS 132035Z 31016G23KT 20/M03 A2984 RMK A01 T02011033  RH  021%=      5-min Rain = 0
KFLS 132040Z 31016G22KT 20/M04 A2983 RMK A01 T02001036  RH  020%=      5-min Rain = 0
KFLS 132045Z 31014G19KT 20/M03 A2983 RMK A01 T02021034  RH  020%=      5-min Rain = 0
KFLS 132050Z 30014G19KT 20/M03 A2983 RMK A01 T01991033  RH  021%=      5-min Rain = 0
KFLS 132055Z 30014KT 20/M04 A2984 RMK A01 T02011037  RH  020%=      5-min Rain = 0
KFLS 132100Z 30014KT 20/M04 A2984 RMK A01 T02001037  RH  020%=      5-min Rain = 0
KFLS 132105Z 32013G19KT 20/M04 A2983 RMK A01 T01981040  RH  020%=      5-min Rain = 0
KFLS 132110Z 30013KT 20/M04 A2983 RMK A01 T02011040  RH  020%=      5-min Rain = 0
KFLS 132115Z 31014G19KT 20/M04 A2984 RMK A01 T02011036  RH  020%=      5-min Rain = 0
KFLS 132120Z 30013G19KT 20/M04 A2984 RMK A01 T02031037  RH  020%=      5-min Rain = 0
KFLS 132125Z 31014KT 20/M04 A2984 RMK A01 T02001037  RH  020%=      5-min Rain = 0
KFLS 132130Z 30013G19KT 20/M04 A2985 RMK A01 T01991037  RH  020%=      5-min Rain = 0
KFLS 132135Z 31012G17KT 20/M04 A2984 RMK A01 T01991037  RH  020%=      5-min Rain = 0
KFLS 132140Z 30013KT 20/M04 A2984 RMK A01 T01991038  RH  020%=      5-min Rain = 0
KFLS 132145Z 30010KT 20/M04 A2984 RMK A01 T01991038  RH  020%=      5-min Rain = 0
KFLS 132150Z 30013G18KT 20/M04 A2984 RMK A01 T01981039  RH  020%=      5-min Rain = 0
KFLS 132155Z 30010KT 20/M04 A2984 RMK A01 T01981038  RH  020%=      5-min Rain = 0
KFLS 132200Z 30011KT 20/M04 A2984 RMK A01 T01981039  RH  020%=      5-min Rain = 0
KFLS 132205Z 30010KT 20/M04 A2984 RMK A01 T01961038  RH  020%=      5-min Rain = 0
KFLS 132210Z 31010KT 20/M04 A2984 RMK A01 T01951039  RH  020%=      5-min Rain = 0
KFLS 132215Z 32011KT 19/M04 A2984 RMK A01 T01931039  RH  021%=      5-min Rain = 0
KFLS 132220Z 31011KT 19/M04 A2985 RMK A01 T01921038  RH  021%=      5-min Rain = 0
KFLS 132225Z 30010KT 19/M04 A2985 RMK A01 T01921039  RH  021%=      5-min Rain = 0
KFLS 132230Z 30009KT 19/M04 A2985 RMK A01 T01921039  RH  021%=      5-min Rain = 0
KFLS 132235Z 30009KT 19/M04 A2985 RMK A01 T01901037  RH  021%=      5-min Rain = 0
KFLS 132240Z 30009KT 19/M04 A2985 RMK A01 T01891036  RH  022%=      5-min Rain = 0
KFLS 132245Z 30008G13KT 19/M04 A2985 RMK A01 T01871038  RH  022%=      5-min Rain = 0
KFLS 132250Z 30007KT 19/M04 A2985 RMK A01 T01851036  RH  022%=      5-min Rain = 0
KFLS 132255Z 29008KT 18/M04 A2985 RMK A01 T01821039  RH  022%=      5-min Rain = 0
KFLS 132300Z 30008KT 18/M04 A2986 RMK A01 T01801044  RH  022%=      5-min Rain = 0
KFLS 132305Z 30007KT 18/M05 A2986 RMK A01 T01751046  RH  022%=      5-min Rain = 0
KFLS 132310Z 30007KT 17/M05 A2986 RMK A01 T01711047  RH  022%=      5-min Rain = 0
KFLS 132315Z 29006KT 16/M05 A2986 RMK A01 T01631048  RH  023%=      5-min Rain = 0
KFLS 132320Z 30005KT 16/M05 A2986 RMK A01 T01561048  RH  025%=      5-min Rain = 0
KFLS 132325Z 31004KT 16/M05 A2986 RMK A01 T01561045  RH  025%=      5-min Rain = 0
KFLS 132330Z 32003KT 16/M05 A2985 RMK A01 T01561045  RH  025%=      5-min Rain = 0
KFLS 132335Z 33003KT 16/M04 A2985 RMK A01 T01561044  RH  025%=      5-min Rain = 0
KFLS 132340Z 33003KT 15/M04 A2985 RMK A01 T01511043  RH  026%=      5-min Rain = 0
KFLS 132345Z 32003KT 14/M04 A2985 RMK A01 T01441043  RH  027%=      5-min Rain = 0
KFLS 132350Z 31003KT 14/M04 A2985 RMK A01 T01411044  RH  028%=      5-min Rain = 0
KFLS 132355Z 30004KT 14/M04 A2985 RMK A01 T01411044  RH  028%=      5-min Rain = 0
KFLS 140000Z 28004KT 13/M04 A2986 RMK A01 T01311044  RH  030%=      5-min Rain = 0
KFLS 140005Z 27004KT 13/M04 A2986 RMK A01 T01261043  RH  031%=      5-min Rain = 0
KFLS 140010Z 26004KT 12/M04 A2986 RMK A01 T01201044  RH  032%=      5-min Rain = 0
KFLS 140015Z 26005KT 11/M05 A2986 RMK A01 T01111045  RH  034%=      5-min Rain = 0
KFLS 140020Z 26005KT 11/M05 A2986 RMK A01 T01081048  RH  034%=      5-min Rain = 0
KFLS 140025Z 25006KT 10/M05 A2987 RMK A01 T01001050  RH  035%=      5-min Rain = 0
KFLS 140030Z 25007KT 09/M05 A2987 RMK A01 T00861051  RH  038%=      5-min Rain = 0
KFLS 140035Z 26007KT 08/M05 A2987 RMK A01 T00761051  RH  040%=      5-min Rain = 0
KFLS 140040Z 27006KT 08/M05 A2987 RMK A01 T00781051  RH  040%=      5-min Rain = 0
KFLS 140045Z 35008G15KT 08/M04 A2988 RMK A01 T00791044  RH  042%=      5-min Rain = 0
KFLS 140050Z 35006KT 10/M04 A2987 RMK A01 T00951042  RH  038%=      5-min Rain = 0
KFLS 140055Z 01006KT 10/M04 A2987 RMK A01 T00951042  RH  038%=      5-min Rain = 0
KFLS 140100Z 02004KT 10/M04 A2987 RMK A01 T00951043  RH  038%=      5-min Rain = 0
KFLS 140105Z 03004KT 10/M04 A2987 RMK A01 T00981043  RH  037%=      5-min Rain = 0
KFLS 140110Z 04005KT 10/M04 A2987 RMK A01 T00971044  RH  037%=      5-min Rain = 0
KFLS 140115Z 04006KT 09/M05 A2987 RMK A01 T00881045  RH  039%=      5-min Rain = 0
KFLS 140120Z 04005KT 09/M04 A2988 RMK A01 T00881044  RH  040%=      5-min Rain = 0
KFLS 140125Z 02005KT 09/M04 A2989 RMK A01 T00871041  RH  041%=      5-min Rain = 0
KFLS 140130Z 03005KT 09/M04 A2989 RMK A01 T00901036  RH  041%=      5-min Rain = 0
KFLS 140135Z 01004KT 09/M04 A2989 RMK A01 T00871037  RH  042%=      5-min Rain = 0
KFLS 140140Z 04007KT 08/M04 A2989 RMK A01 T00781037  RH  044%=      5-min Rain = 0
KFLS 140145Z 03007KT 08/M03 A299 RMK A01 T00751034  RH  046%=      5-min Rain = 0
KFLS 140150Z 05006KT 08/M03 A2989 RMK A01 T00761032  RH  047%=      5-min Rain = 0
KFLS 140155Z 06005KT 07/M03 A299 RMK A01 T00711033  RH  048%=      5-min Rain = 0
KFLS 140200Z 03004KT 07/M03 A299 RMK A01 T00731031  RH  048%=      5-min Rain = 0
KFLS 140205Z 04004KT 07/M03 A2991 RMK A01 T00691033  RH  049%=      5-min Rain = 0
KFLS 140210Z 06002KT 06/M04 A2991 RMK A01 T00621036  RH  050%=      5-min Rain = 0
KFLS 140215Z 35002KT 06/M04 A2991 RMK A01 T00561038  RH  051%=      5-min Rain = 0
KFLS 140220Z 01003KT 06/M04 A2991 RMK A01 T00631037  RH  049%=      5-min Rain = 0
KFLS 140225Z 03003KT 07/M04 A2991 RMK A01 T00671037  RH  048%=      5-min Rain = 0
KFLS 140230Z 05001KT 05/M04 A2991 RMK A01 T00541041  RH  051%=      5-min Rain = 0
KFLS 140235Z 26002KT 05/M04 A2991 RMK A01 T00471041  RH  053%=      5-min Rain = 0
KFLS 140240Z 21003KT 04/M04 A2991 RMK A01 T00421040  RH  056%=      5-min Rain = 0
KFLS 140245Z 24003KT 05/M04 A2991 RMK A01 T00531039  RH  052%=      5-min Rain = 0
KFLS 140250Z 18002KT 05/M04 A299 RMK A01 T00471040  RH  054%=      5-min Rain = 0
KFLS 140255Z 11002KT 05/M04 A299 RMK A01 T00491038  RH  054%=      5-min Rain = 0
KFLS 140300Z 13002KT 05/M04 A299 RMK A01 T00521038  RH  053%=      5-min Rain = 0
KFLS 140305Z 17003KT 05/M04 A299 RMK A01 T00541037  RH  052%=      5-min Rain = 0
KFLS 140310Z 15004KT 05/M04 A299 RMK A01 T00531037  RH  053%=      5-min Rain = 0
KFLS 140315Z 14004KT 05/M04 A2989 RMK A01 T00461039  RH  054%=      5-min Rain = 0
KFLS 140320Z 17002KT 04/M04 A2991 RMK A01 T00391040  RH  057%=      5-min Rain = 0
KFLS 140325Z 17000KT 04/M04 A2991 RMK A01 T00371037  RH  059%=      5-min Rain = 0
KFLS 140330Z 17002KT 04/M04 A2991 RMK A01 T00371042  RH  057%=      5-min Rain = 0
KFLS 140335Z 28002KT 03/M04 A2992 RMK A01 T00341044  RH  057%=      5-min Rain = 0
KFLS 140340Z 23002KT 03/M05 A2992 RMK A01 T00261045  RH  060%=      5-min Rain = 0
KFLS 140345Z 27005KT 02/M05 A2992 RMK A01 T00231046  RH  061%=      5-min Rain = 0
KFLS 140350Z 27005KT 02/M04 A2992 RMK A01 T00161044  RH  065%=      5-min Rain = 0
KFLS 140355Z 21003KT 03/M04 A2992 RMK A01 T00281042  RH  061%=      5-min Rain = 0
KFLS 140400Z 22004KT 02/M05 A2992 RMK A01 T00221048  RH  060%=      5-min Rain = 0
KFLS 140405Z 33003G10KT 02/M04 A2992 RMK A01 T00241038  RH  064%=      5-min Rain = 0
KFLS 140410Z 30003KT 02/M04 A2992 RMK A01 T00231041  RH  063%=      5-min Rain = 0
KFLS 140415Z 36007KT 03/M04 A2992 RMK A01 T00281038  RH  062%=      5-min Rain = 0
KFLS 140420Z 01007KT 04/M03 A2993 RMK A01 T00421034  RH  058%=      5-min Rain = 0
KFLS 140425Z 34005KT 05/M04 A2993 RMK A01 T00461036  RH  056%=      5-min Rain = 0
KFLS 140430Z 32007KT 03/M04 A2993 RMK A01 T00271040  RH  062%=      5-min Rain = 0
KFLS 140435Z 36006KT 03/M04 A2992 RMK A01 T00251039  RH  064%=      5-min Rain = 0
KFLS 140440Z 35007KT 05/M04 A2992 RMK A01 T00451035  RH  056%=      5-min Rain = 0
KFLS 140445Z 00005KT 04/M04 A2992 RMK A01 T00411037  RH  058%=      5-min Rain = 0
KFLS 140450Z 36006KT 05/M04 A2992 RMK A01 T00471036  RH  056%=      5-min Rain = 0
KFLS 140455Z 01008KT 05/M04 A2991 RMK A01 T00471037  RH  055%=      5-min Rain = 0
KFLS 140500Z 04009KT 05/M04 A299 RMK A01 T00481035  RH  056%=      5-min Rain = 0
KFLS 140505Z 02007KT 04/M04 A2991 RMK A01 T00411036  RH  058%=      5-min Rain = 0
KFLS 140510Z 02010KT 04/M04 A2991 RMK A01 T00411036  RH  058%=      5-min Rain = 0
KFLS 140515Z 02008KT 04/M04 A2992 RMK A01 T00431037  RH  056%=      5-min Rain = 0
KFLS 140520Z 01006KT 05/M04 A2992 RMK A01 T00461039  RH  054%=      5-min Rain = 0
KFLS 140525Z 01008KT 05/M04 A2992 RMK A01 T00491039  RH  053%=      5-min Rain = 0
KFLS 140530Z 01008KT 04/M04 A2992 RMK A01 T00441042  RH  054%=      5-min Rain = 0
KFLS 140535Z 02008KT 03/M04 A2992 RMK A01 T00321042  RH  059%=      5-min Rain = 0
KFLS 140540Z 02009KT 03/M04 A2992 RMK A01 T00291039  RH  062%=      5-min Rain = 0
KFLS 140545Z 02010KT 03/M04 A2992 RMK A01 T00321037  RH  061%=      5-min Rain = 0
KFLS 140550Z 02009KT 03/M04 A2991 RMK A01 T00341037  RH  061%=      5-min Rain = 0
KFLS 140555Z 02009KT 03/M04 A2992 RMK A01 T00331037  RH  061%=      5-min Rain = 0

Page generated in 0.0294 seconds.